Thorco Reef — VRIP4 — position and weather

sailwx.info

Track history (hours):
 
Tides and Currents Weather Stations Pressure Air Temp Water Temp Dewpoint Dewpoint Depression Visibility Wind Speed Wind Dir Waves Ship Positions

Thorco Reef

Last reported at 2017-Nov-02 05:12 UTC. Time now 2017-Nov-21 02:53 UTC.
Position N 27°34' W 015°16'.
Warning: this ship's position is 18 days out of date.

Length 161 m; draft 7.3 m.

Type: Ship. MMSI: 477196900.

Date/timePositionNaut miles runAvg speedWind from/ knotsBaromVisibWave heightAir tempDewpointWater temp
2017-Nov-02 05:12N 27°34' W 015°16'316.2
2017-Nov-02 05:00N 27°37' W 015°14'816.5
2017-Nov-02 04:30N 27°44' W 015°11'816.1
2017-Nov-02 04:00N 27°52' W 015°08'815.6
2017-Nov-02 03:30N 27°59' W 015°05'815.4
2017-Nov-02 03:00N 28°06' W 015°01'815.5
2017-Nov-02 02:31N 28°13' W 014°58'815.5
2017-Nov-02 02:00N 28°21' W 014°55'815.2
2017-Nov-02 01:30N 28°28' W 014°53'815.3
2017-Nov-02 01:00N 28°35' W 014°51'815.5
2017-Nov-02 00:30N 28°43' W 014°48'815.3
2017-Nov-01 23:58N 28°51' W 014°46'5815.5
2017-Nov-01 20:14N 29°47' W 014°30'2115.5
2017-Nov-01 18:51N 30°08' W 014°25'  
2017-Oct-29 17:06N 47°05' W 007°24'514.9
2017-Oct-29 16:47N 47°09' W 007°21'614.5
2017-Oct-29 16:22N 47°14' W 007°16'1214.4
2017-Oct-29 15:31N 47°24' W 007°07'714.6
2017-Oct-29 15:02N 47°30' W 007°01'1015.0
2017-Oct-29 14:21N 47°39' W 006°53'615.1
2017-Oct-29 13:59N 47°44' W 006°49'914.9
2017-Oct-29 13:21N 47°51' W 006°41'10213.5
2017-Oct-29 05:47N 49°11' W 005°03'512.6
2017-Oct-29 05:23N 49°13' W 004°57'13312.5
2017-Oct-28 18:45N 50°10' W 001°51'314.0
2017-Oct-28 18:30N 50°11' W 001°46'713.8
2017-Oct-28 18:00N 50°13' W 001°35'713.5
2017-Oct-28 17:31N 50°14' W 001°25'3812.1
2017-Oct-28 14:21N 50°25' W 000°28'411.5
2017-Oct-28 14:00N 50°27' W 000°22'611.3
2017-Oct-28 13:30N 50°28' W 000°14'611.8
2017-Oct-28 13:00N 50°29' W 000°04'611.9
2017-Oct-28 12:30N 50°31' E 000°04'612.1
2017-Oct-28 12:00N 50°32' E 000°14'612.3
2017-Oct-28 11:30N 50°34' E 000°23'612.7
2017-Oct-28 11:00N 50°36' E 000°32'713.2
2017-Oct-28 10:30N 50°39' E 000°41'713.5
2017-Oct-28 10:00N 50°43' E 000°50'713.6
2017-Oct-28 09:30N 50°47' E 000°59'713.6
2017-Oct-28 08:59N 50°51' E 001°08'613.4
2017-Oct-28 08:30N 50°55' E 001°16'713.5
2017-Oct-28 08:00N 50°59' E 001°24'713.6
2017-Oct-28 07:31N 51°04' E 001°32'713.3
2017-Oct-28 07:00N 51°09' E 001°39'612.8
2017-Oct-28 06:30N 51°14' E 001°46'612.7
2017-Oct-28 06:01N 51°19' E 001°52'612.8
2017-Oct-28 05:31N 51°24' E 001°58'510.2
2017-Oct-28 05:01N 51°24' E 002°06'612.3
2017-Oct-28 04:31N 51°21' E 002°15'612.1
2017-Oct-28 04:01N 51°22' E 002°25'612.5
2017-Oct-28 03:31N 51°22' E 002°35'612.5
2017-Oct-28 03:00N 51°21' E 002°44'611.4
2017-Oct-28 02:30N 51°23' E 002°53'612.8
2017-Oct-28 02:01N 51°25' E 003°03'612.7
2017-Oct-28 01:30N 51°25' E 003°13'612.9
2017-Oct-28 01:00N 51°25' E 003°24'713.0
2017-Oct-28 00:30N 51°26' E 003°34'3 6.3
2017-Oct-28 00:00N 51°26' E 003°39'510.2
2017-Oct-27 23:30N 51°23' E 003°44'713.5
2017-Oct-27 23:00N 51°22' E 003°55'511.0
2017-Oct-27 22:30N 51°25' E 004°02'611.0
2017-Oct-27 22:00N 51°24' E 004°10'510.1
2017-Oct-27 21:30N 51°21' E 004°17'0 0.3
2017-Oct-27 21:00N 51°21' E 004°17'0 0.7
2017-Oct-27 20:30N 51°21' E 004°18'1 1.6
2017-Oct-27 20:00N 51°20' E 004°18'2 4.7
2017-Oct-27 19:30N 51°18' E 004°20'2 4.4
2017-Oct-27 19:00N 51°16' E 004°21'1 2.5
2017-Oct-27 18:29N 51°15' E 004°23'0 0.0
2017-Oct-27 17:59N 51°15' E 004°23'0 0.0
2017-Oct-27 17:29N 51°15' E 004°23'0 0.0
2017-Oct-27 16:59N 51°15' E 004°23'0 0.0
2017-Oct-27 16:29N 51°15' E 004°23'0 0.0
2017-Oct-27 15:59N 51°15' E 004°23'0 0.0
2017-Oct-27 15:29N 51°15' E 004°23'0 0.0
2017-Oct-27 14:59N 51°15' E 004°23'0 0.0
2017-Oct-27 14:29N 51°15' E 004°23'0 0.0
2017-Oct-27 13:59N 51°15' E 004°23'0 0.0
2017-Oct-27 13:29N 51°15' E 004°23'0 0.0
2017-Oct-27 12:59N 51°15' E 004°23'0 0.0
2017-Oct-27 12:29N 51°15' E 004°23'0 0.0
2017-Oct-27 11:59N 51°15' E 004°23'0 0.0
2017-Oct-27 11:29N 51°15' E 004°23'0 0.0
2017-Oct-27 10:59N 51°15' E 004°23'0 0.0
2017-Oct-27 10:29N 51°15' E 004°23'0 0.0
2017-Oct-27 09:59N 51°15' E 004°23'0 0.0
2017-Oct-27 09:29N 51°15' E 004°23'0 0.0
2017-Oct-27 08:59N 51°15' E 004°23'0 0.0
2017-Oct-27 08:29N 51°15' E 004°23'0 0.0
2017-Oct-27 07:59N 51°15' E 004°23'0 0.0
2017-Oct-27 07:29N 51°15' E 004°23'0 0.0
2017-Oct-27 06:59N 51°15' E 004°23'0 0.0
2017-Oct-27 06:29N 51°15' E 004°23'0 0.0
2017-Oct-27 05:59N 51°15' E 004°23'0 0.0
2017-Oct-27 05:29N 51°15' E 004°23'0 0.0
2017-Oct-27 04:59N 51°15' E 004°23'0 0.0
2017-Oct-27 04:29N 51°15' E 004°23'0 0.0
2017-Oct-27 03:59N 51°15' E 004°23'0 0.0
2017-Oct-27 03:29N 51°15' E 004°23'0 0.0
2017-Oct-27 02:56N 51°15' E 004°23'0 0.0
2017-Oct-27 02:29N 51°15' E 004°23'0 0.0
2017-Oct-27 01:59N 51°15' E 004°23'0 0.0
2017-Oct-27 01:29N 51°15' E 004°23'0 0.0
2017-Oct-27 00:59N 51°15' E 004°23'0 0.0
2017-Oct-27 00:29N 51°15' E 004°23'0 0.0
2017-Oct-26 23:59N 51°15' E 004°23'0 0.0
2017-Oct-26 23:29N 51°15' E 004°23'0 0.0
2017-Oct-26 22:59N 51°15' E 004°23'0 0.0
2017-Oct-26 22:29N 51°15' E 004°23'0 0.0
2017-Oct-26 21:59N 51°15' E 004°23'0 0.0
2017-Oct-26 21:29N 51°15' E 004°23'0 0.0
2017-Oct-26 20:59N 51°15' E 004°23'0 0.0
2017-Oct-26 20:29N 51°15' E 004°23'0 0.0
2017-Oct-26 19:59N 51°15' E 004°23'0 0.0
2017-Oct-26 19:29N 51°15' E 004°23'0 0.0
2017-Oct-26 18:59N 51°15' E 004°23'0 0.0
2017-Oct-26 18:29N 51°15' E 004°23'0 0.0
2017-Oct-26 17:59N 51°15' E 004°23'0 0.0
2017-Oct-26 17:29N 51°15' E 004°23'0 0.0
2017-Oct-26 16:59N 51°15' E 004°23'0 0.0
2017-Oct-26 16:29N 51°15' E 004°23'0 0.0
2017-Oct-26 15:59N 51°15' E 004°23'0 0.0
2017-Oct-26 15:29N 51°15' E 004°23'0 0.0
2017-Oct-26 14:59N 51°15' E 004°23'0 0.0
2017-Oct-26 14:29N 51°15' E 004°23'0 0.0
2017-Oct-26 13:59N 51°15' E 004°23'0 0.0
2017-Oct-26 13:29N 51°15' E 004°23'0 0.0
2017-Oct-26 12:59N 51°15' E 004°23'0 0.0
2017-Oct-26 12:26N 51°15' E 004°23'0 0.0
2017-Oct-26 11:59N 51°15' E 004°23'0 0.0
2017-Oct-26 11:29N 51°15' E 004°23'0 0.0
2017-Oct-26 10:59N 51°15' E 004°23'0 0.0
2017-Oct-26 10:29N 51°15' E 004°23'0 0.0
2017-Oct-26 09:59N 51°15' E 004°23'0 0.0
2017-Oct-26 09:29N 51°15' E 004°23'0 0.0
2017-Oct-26 08:59N 51°15' E 004°23'0 0.0
2017-Oct-26 08:29N 51°15' E 004°23'0 0.0
2017-Oct-26 07:59N 51°15' E 004°23'0 0.0
2017-Oct-26 07:29N 51°15' E 004°23'0 0.0
2017-Oct-26 06:59N 51°15' E 004°23'0 0.0
2017-Oct-26 06:29N 51°15' E 004°23'0 0.0
2017-Oct-26 05:59N 51°15' E 004°23'0 0.0
2017-Oct-26 05:29N 51°15' E 004°23'0 0.0
2017-Oct-26 04:59N 51°15' E 004°23'0 0.0
2017-Oct-26 04:29N 51°15' E 004°23'0 0.0
2017-Oct-26 03:59N 51°15' E 004°23'0 0.0
2017-Oct-26 03:29N 51°15' E 004°23'0 0.0
2017-Oct-26 02:59N 51°15' E 004°23'0 0.0
2017-Oct-26 02:29N 51°15' E 004°23'0 0.0
2017-Oct-26 01:59N 51°15' E 004°23'0 0.0
2017-Oct-26 01:29N 51°15' E 004°23'0 0.0
2017-Oct-26 00:59N 51°15' E 004°23'0 0.0
2017-Oct-26 00:29N 51°15' E 004°23'0 0.0
2017-Oct-25 23:59N 51°15' E 004°23'0 0.0
2017-Oct-25 23:29N 51°15' E 004°23'0 0.0
2017-Oct-25 22:59N 51°15' E 004°23'0 0.0
2017-Oct-25 22:29N 51°15' E 004°23'0 0.0
2017-Oct-25 21:59N 51°15' E 004°23'0 0.0
2017-Oct-25 21:29N 51°15' E 004°23'0 0.0
2017-Oct-25 20:59N 51°15' E 004°23'0 0.0
2017-Oct-25 20:29N 51°15' E 004°23'0 0.0
2017-Oct-25 19:59N 51°15' E 004°23'0 0.0
2017-Oct-25 19:29N 51°15' E 004°23'0 0.0
2017-Oct-25 18:59N 51°15' E 004°23'0 0.0
2017-Oct-25 18:29N 51°15' E 004°23'0 0.0
2017-Oct-25 17:59N 51°15' E 004°23'0 0.0
2017-Oct-25 17:29N 51°15' E 004°23'0 0.0
2017-Oct-25 16:59N 51°15' E 004°23'0 0.0
2017-Oct-25 16:29N 51°15' E 004°23'0 0.0
2017-Oct-25 15:59N 51°15' E 004°23'0 0.2
2017-Oct-25 15:30N 51°15' E 004°22'2 3.4
2017-Oct-25 15:00N 51°16' E 004°21'3 5.5
2017-Oct-25 14:30N 51°19' E 004°19'2 4.7
2017-Oct-25 14:01N 51°21' E 004°17'0 0.0
2017-Oct-25 13:30N 51°21' E 004°17'0 0.0
2017-Oct-25 13:00N 51°21' E 004°17'0 0.9
2017-Oct-25 12:30N 51°21' E 004°16'1 2.7
2017-Oct-25 12:00N 51°21' E 004°14'3 6.1
2017-Oct-25 11:30N 51°24' E 004°12'5 9.4
2017-Oct-25 11:00N 51°22' E 004°05'510.4
2017-Oct-25 10:30N 51°26' E 003°60'611.6
2017-Oct-25 10:00N 51°22' E 003°54'510.7
2017-Oct-25 09:30N 51°22' E 003°46'611.4
2017-Oct-25 09:01N 51°26' E 003°40'5 9.1
2017-Oct-25 08:30N 51°25' E 003°33'510.6
2017-Oct-25 08:00N 51°24' E 003°25'612.1
2017-Oct-25 07:31N 51°25' E 003°15'713.2
2017-Oct-25 07:00N 51°24' E 003°05'713.7
2017-Oct-25 06:30N 51°22' E 002°54'713.8
2017-Oct-25 06:01N 51°22' E 002°43'5 9.4
2017-Oct-25 05:31N 51°22' E 002°35'611.9
2017-Oct-25 05:00N 51°21' E 002°26'713.8
2017-Oct-25 04:30N 51°18' E 002°16'714.1
2017-Oct-25 04:00N 51°14' E 002°06'714.4
2017-Oct-25 03:30N 51°11' E 001°56'714.5
2017-Oct-25 03:01N 51°07' E 001°47'815.0
2017-Oct-25 02:30N 51°01' E 001°38'815.3
2017-Oct-25 02:00N 50°56' E 001°30'815.3
2017-Oct-25 01:30N 50°49' E 001°26'814.4
2017-Oct-25 00:59N 50°42' E 001°21'4814.2
2017-Oct-24 21:35N 50°21' E 000°12'114.3
2017-Oct-24 21:30N 50°21' E 000°11'714.0
2017-Oct-24 21:00N 50°19' E 000°00'713.6
2017-Oct-24 20:30N 50°17' W 000°10'713.3
2017-Oct-24 20:00N 50°16' W 000°20'612.9
2017-Oct-24 19:30N 50°14' W 000°30'612.4
2017-Oct-24 19:00N 50°13' W 000°39'611.9
2017-Oct-24 18:28N 50°11' W 000°49'611.4
2017-Oct-24 17:57N 50°09' W 000°58'2410.4
2017-Oct-24 15:41N 50°03' W 001°33'1210.7
2017-Oct-24 14:32N 49°59' W 001°51'411.5
2017-Oct-24 14:09N 49°58' W 001°58'312.0
2017-Oct-24 13:52N 49°57' W 002°03'512.5
2017-Oct-24 13:28N 49°56' W 002°11'713.2
2017-Oct-24 12:57N 49°54' W 002°21'1213.7
2017-Oct-24 12:06N 49°51' W 002°39'814.1
2017-Oct-24 11:31N 49°49' W 002°51'014.2
2017-Oct-24 11:30N 49°49' W 002°51'714.5
2017-Oct-24 11:00N 49°46' W 003°01'714.5
2017-Oct-24 10:29N 49°42' W 003°11'714.6
2017-Oct-24 09:58N 49°38' W 003°21'814.4
2017-Oct-24 09:26N 49°34' W 003°31'714.5
2017-Oct-24 08:59N 49°31' W 003°40'2114.7
2017-Oct-24 07:33N 49°20' W 004°08'115.2
2017-Oct-24 07:30N 49°20' W 004°09'914.9
2017-Oct-24 06:55N 49°15' W 004°20'614.9
2017-Oct-24 06:29N 49°12' W 004°29'1015.7
2017-Oct-24 05:52N 49°07' W 004°42'915.7
2017-Oct-24 05:18N 49°03' W 004°54'615.7
2017-Oct-24 04:57N 48°60' W 005°01'715.7
2017-Oct-24 04:29N 48°57' W 005°11'715.5
2017-Oct-24 04:01N 48°53' W 005°20'815.2
2017-Oct-24 03:30N 48°48' W 005°30'814.8
2017-Oct-24 02:58N 48°43' W 005°38'714.4
2017-Oct-24 02:30N 48°38' W 005°46'814.2
2017-Oct-24 01:58N 48°33' W 005°54'613.9
2017-Oct-24 01:30N 48°29' W 006°01'1213.6
2017-Oct-24 00:37N 48°20' W 006°14'813.2
2017-Oct-24 00:02N 48°15' W 006°23'113.4
2017-Oct-23 23:59N 48°15' W 006°24'613.2
2017-Oct-23 23:30N 48°11' W 006°31'713.3
2017-Oct-23 23:00N 48°06' W 006°39'714.0
2017-Oct-23 22:29N 48°02' W 006°47'712.7
2017-Oct-23 21:58N 47°58' W 006°55'913.3
2017-Oct-23 21:19N 47°52' W 007°05'613.8
2017-Oct-23 20:53N 47°48' W 007°12'813.3
2017-Oct-23 20:18N 47°44' W 007°21'413.4
2017-Oct-23 20:00N 47°41' W 007°25'  
Track history (hours):
 
Tides and Currents Weather Stations Pressure Air Temp Water Temp Dewpoint Dewpoint Depression Visibility Wind Speed Wind Dir Waves Ship Positions

Thorco Reef

Last reported at 2017-Nov-02 05:12 UTC. Time now 2017-Nov-21 02:53 UTC.
Position N 27°34' W 015°16'.
Warning: this ship's position is 18 days out of date.

Length 161 m; draft 7.3 m.

Type: Ship. MMSI: 477196900.

Date/timePositionNaut miles runAvg speedWind from/ knotsBaromVisibWave heightAir tempDewpointWater temp
2017-Nov-02 05:12N 27°34' W 015°16'316.2
2017-Nov-02 05:00N 27°37' W 015°14'816.5
2017-Nov-02 04:30N 27°44' W 015°11'816.1
2017-Nov-02 04:00N 27°52' W 015°08'815.6
2017-Nov-02 03:30N 27°59' W 015°05'815.4
2017-Nov-02 03:00N 28°06' W 015°01'815.5
2017-Nov-02 02:31N 28°13' W 014°58'815.5
2017-Nov-02 02:00N 28°21' W 014°55'815.2
2017-Nov-02 01:30N 28°28' W 014°53'815.3
2017-Nov-02 01:00N 28°35' W 014°51'815.5
2017-Nov-02 00:30N 28°43' W 014°48'815.3
2017-Nov-01 23:58N 28°51' W 014°46'5815.5
2017-Nov-01 20:14N 29°47' W 014°30'2115.5
2017-Nov-01 18:51N 30°08' W 014°25'  
2017-Oct-29 17:06N 47°05' W 007°24'514.9
2017-Oct-29 16:47N 47°09' W 007°21'614.5
2017-Oct-29 16:22N 47°14' W 007°16'1214.4
2017-Oct-29 15:31N 47°24' W 007°07'714.6
2017-Oct-29 15:02N 47°30' W 007°01'1015.0
2017-Oct-29 14:21N 47°39' W 006°53'615.1
2017-Oct-29 13:59N 47°44' W 006°49'914.9
2017-Oct-29 13:21N 47°51' W 006°41'10213.5
2017-Oct-29 05:47N 49°11' W 005°03'512.6
2017-Oct-29 05:23N 49°13' W 004°57'13312.5
2017-Oct-28 18:45N 50°10' W 001°51'314.0
2017-Oct-28 18:30N 50°11' W 001°46'713.8
2017-Oct-28 18:00N 50°13' W 001°35'713.5
2017-Oct-28 17:31N 50°14' W 001°25'3812.1
2017-Oct-28 14:21N 50°25' W 000°28'411.5
2017-Oct-28 14:00N 50°27' W 000°22'611.3
2017-Oct-28 13:30N 50°28' W 000°14'611.8
2017-Oct-28 13:00N 50°29' W 000°04'611.9
2017-Oct-28 12:30N 50°31' E 000°04'612.1
2017-Oct-28 12:00N 50°32' E 000°14'612.3
2017-Oct-28 11:30N 50°34' E 000°23'612.7
2017-Oct-28 11:00N 50°36' E 000°32'713.2
2017-Oct-28 10:30N 50°39' E 000°41'713.5
2017-Oct-28 10:00N 50°43' E 000°50'713.6
2017-Oct-28 09:30N 50°47' E 000°59'713.6
2017-Oct-28 08:59N 50°51' E 001°08'613.4
2017-Oct-28 08:30N 50°55' E 001°16'713.5
2017-Oct-28 08:00N 50°59' E 001°24'713.6
2017-Oct-28 07:31N 51°04' E 001°32'713.3
2017-Oct-28 07:00N 51°09' E 001°39'612.8
2017-Oct-28 06:30N 51°14' E 001°46'612.7
2017-Oct-28 06:01N 51°19' E 001°52'612.8
2017-Oct-28 05:31N 51°24' E 001°58'510.2
2017-Oct-28 05:01N 51°24' E 002°06'612.3
2017-Oct-28 04:31N 51°21' E 002°15'612.1
2017-Oct-28 04:01N 51°22' E 002°25'612.5
2017-Oct-28 03:31N 51°22' E 002°35'612.5
2017-Oct-28 03:00N 51°21' E 002°44'611.4
2017-Oct-28 02:30N 51°23' E 002°53'612.8
2017-Oct-28 02:01N 51°25' E 003°03'612.7
2017-Oct-28 01:30N 51°25' E 003°13'612.9
2017-Oct-28 01:00N 51°25' E 003°24'713.0
2017-Oct-28 00:30N 51°26' E 003°34'3 6.3
2017-Oct-28 00:00N 51°26' E 003°39'510.2
2017-Oct-27 23:30N 51°23' E 003°44'713.5
2017-Oct-27 23:00N 51°22' E 003°55'511.0
2017-Oct-27 22:30N 51°25' E 004°02'611.0
2017-Oct-27 22:00N 51°24' E 004°10'510.1
2017-Oct-27 21:30N 51°21' E 004°17'0 0.3
2017-Oct-27 21:00N 51°21' E 004°17'0 0.7
2017-Oct-27 20:30N 51°21' E 004°18'1 1.6
2017-Oct-27 20:00N 51°20' E 004°18'2 4.7
2017-Oct-27 19:30N 51°18' E 004°20'2 4.4
2017-Oct-27 19:00N 51°16' E 004°21'1 2.5
2017-Oct-27 18:29N 51°15' E 004°23'0 0.0
2017-Oct-27 17:59N 51°15' E 004°23'0 0.0
2017-Oct-27 17:29N 51°15' E 004°23'0 0.0
2017-Oct-27 16:59N 51°15' E 004°23'0 0.0
2017-Oct-27 16:29N 51°15' E 004°23'0 0.0
2017-Oct-27 15:59N 51°15' E 004°23'0 0.0
2017-Oct-27 15:29N 51°15' E 004°23'0 0.0
2017-Oct-27 14:59N 51°15' E 004°23'0 0.0
2017-Oct-27 14:29N 51°15' E 004°23'0 0.0
2017-Oct-27 13:59N 51°15' E 004°23'0 0.0
2017-Oct-27 13:29N 51°15' E 004°23'0 0.0
2017-Oct-27 12:59N 51°15' E 004°23'0 0.0
2017-Oct-27 12:29N 51°15' E 004°23'0 0.0
2017-Oct-27 11:59N 51°15' E 004°23'0 0.0
2017-Oct-27 11:29N 51°15' E 004°23'0 0.0
2017-Oct-27 10:59N 51°15' E 004°23'0 0.0
2017-Oct-27 10:29N 51°15' E 004°23'0 0.0
2017-Oct-27 09:59N 51°15' E 004°23'0 0.0
2017-Oct-27 09:29N 51°15' E 004°23'0 0.0
2017-Oct-27 08:59N 51°15' E 004°23'0 0.0
2017-Oct-27 08:29N 51°15' E 004°23'0 0.0
2017-Oct-27 07:59N 51°15' E 004°23'0 0.0
2017-Oct-27 07:29N 51°15' E 004°23'0 0.0
2017-Oct-27 06:59N 51°15' E 004°23'0 0.0
2017-Oct-27 06:29N 51°15' E 004°23'0 0.0
2017-Oct-27 05:59N 51°15' E 004°23'0 0.0
2017-Oct-27 05:29N 51°15' E 004°23'0 0.0
2017-Oct-27 04:59N 51°15' E 004°23'0 0.0
2017-Oct-27 04:29N 51°15' E 004°23'0 0.0
2017-Oct-27 03:59N 51°15' E 004°23'0 0.0
2017-Oct-27 03:29N 51°15' E 004°23'0 0.0
2017-Oct-27 02:56N 51°15' E 004°23'0 0.0
2017-Oct-27 02:29N 51°15' E 004°23'0 0.0
2017-Oct-27 01:59N 51°15' E 004°23'0 0.0
2017-Oct-27 01:29N 51°15' E 004°23'0 0.0
2017-Oct-27 00:59N 51°15' E 004°23'0 0.0
2017-Oct-27 00:29N 51°15' E 004°23'0 0.0
2017-Oct-26 23:59N 51°15' E 004°23'0 0.0
2017-Oct-26 23:29N 51°15' E 004°23'0 0.0
2017-Oct-26 22:59N 51°15' E 004°23'0 0.0
2017-Oct-26 22:29N 51°15' E 004°23'0 0.0
2017-Oct-26 21:59N 51°15' E 004°23'0 0.0
2017-Oct-26 21:29N 51°15' E 004°23'0 0.0
2017-Oct-26 20:59N 51°15' E 004°23'0 0.0
2017-Oct-26 20:29N 51°15' E 004°23'0 0.0
2017-Oct-26 19:59N 51°15' E 004°23'0 0.0
2017-Oct-26 19:29N 51°15' E 004°23'0 0.0
2017-Oct-26 18:59N 51°15' E 004°23'0 0.0
2017-Oct-26 18:29N 51°15' E 004°23'0 0.0
2017-Oct-26 17:59N 51°15' E 004°23'0 0.0
2017-Oct-26 17:29N 51°15' E 004°23'0 0.0
2017-Oct-26 16:59N 51°15' E 004°23'0 0.0
2017-Oct-26 16:29N 51°15' E 004°23'0 0.0
2017-Oct-26 15:59N 51°15' E 004°23'0 0.0
2017-Oct-26 15:29N 51°15' E 004°23'0 0.0
2017-Oct-26 14:59N 51°15' E 004°23'0 0.0
2017-Oct-26 14:29N 51°15' E 004°23'0 0.0
2017-Oct-26 13:59N 51°15' E 004°23'0 0.0
2017-Oct-26 13:29N 51°15' E 004°23'0 0.0
2017-Oct-26 12:59N 51°15' E 004°23'0 0.0
2017-Oct-26 12:26N 51°15' E 004°23'0 0.0
2017-Oct-26 11:59N 51°15' E 004°23'0 0.0
2017-Oct-26 11:29N 51°15' E 004°23'0 0.0
2017-Oct-26 10:59N 51°15' E 004°23'0 0.0
2017-Oct-26 10:29N 51°15' E 004°23'0 0.0
2017-Oct-26 09:59N 51°15' E 004°23'0 0.0
2017-Oct-26 09:29N 51°15' E 004°23'0 0.0
2017-Oct-26 08:59N 51°15' E 004°23'0 0.0
2017-Oct-26 08:29N 51°15' E 004°23'0 0.0
2017-Oct-26 07:59N 51°15' E 004°23'0 0.0
2017-Oct-26 07:29N 51°15' E 004°23'0 0.0
2017-Oct-26 06:59N 51°15' E 004°23'0 0.0
2017-Oct-26 06:29N 51°15' E 004°23'0 0.0
2017-Oct-26 05:59N 51°15' E 004°23'0 0.0
2017-Oct-26 05:29N 51°15' E 004°23'0 0.0
2017-Oct-26 04:59N 51°15' E 004°23'0 0.0
2017-Oct-26 04:29N 51°15' E 004°23'0 0.0
2017-Oct-26 03:59N 51°15' E 004°23'0 0.0
2017-Oct-26 03:29N 51°15' E 004°23'0 0.0
2017-Oct-26 02:59N 51°15' E 004°23'0 0.0
2017-Oct-26 02:29N 51°15' E 004°23'0 0.0
2017-Oct-26 01:59N 51°15' E 004°23'0 0.0
2017-Oct-26 01:29N 51°15' E 004°23'0 0.0
2017-Oct-26 00:59N 51°15' E 004°23'0 0.0
2017-Oct-26 00:29N 51°15' E 004°23'0 0.0
2017-Oct-25 23:59N 51°15' E 004°23'0 0.0
2017-Oct-25 23:29N 51°15' E 004°23'0 0.0
2017-Oct-25 22:59N 51°15' E 004°23'0 0.0
2017-Oct-25 22:29N 51°15' E 004°23'0 0.0
2017-Oct-25 21:59N 51°15' E 004°23'0 0.0
2017-Oct-25 21:29N 51°15' E 004°23'0 0.0
2017-Oct-25 20:59N 51°15' E 004°23'0 0.0
2017-Oct-25 20:29N 51°15' E 004°23'0 0.0
2017-Oct-25 19:59N 51°15' E 004°23'0 0.0
2017-Oct-25 19:29N 51°15' E 004°23'0 0.0
2017-Oct-25 18:59N 51°15' E 004°23'0 0.0
2017-Oct-25 18:29N 51°15' E 004°23'0 0.0
2017-Oct-25 17:59N 51°15' E 004°23'0 0.0
2017-Oct-25 17:29N 51°15' E 004°23'0 0.0
2017-Oct-25 16:59N 51°15' E 004°23'0 0.0
2017-Oct-25 16:29N 51°15' E 004°23'0 0.0
2017-Oct-25 15:59N 51°15' E 004°23'0 0.2
2017-Oct-25 15:30N 51°15' E 004°22'2 3.4
2017-Oct-25 15:00N 51°16' E 004°21'3 5.5
2017-Oct-25 14:30N 51°19' E 004°19'2 4.7
2017-Oct-25 14:01N 51°21' E 004°17'0 0.0
2017-Oct-25 13:30N 51°21' E 004°17'0 0.0
2017-Oct-25 13:00N 51°21' E 004°17'0 0.9
2017-Oct-25 12:30N 51°21' E 004°16'1 2.7
2017-Oct-25 12:00N 51°21' E 004°14'3 6.1
2017-Oct-25 11:30N 51°24' E 004°12'5 9.4
2017-Oct-25 11:00N 51°22' E 004°05'510.4
2017-Oct-25 10:30N 51°26' E 003°60'611.6
2017-Oct-25 10:00N 51°22' E 003°54'510.7
2017-Oct-25 09:30N 51°22' E 003°46'611.4
2017-Oct-25 09:01N 51°26' E 003°40'5 9.1
2017-Oct-25 08:30N 51°25' E 003°33'510.6
2017-Oct-25 08:00N 51°24' E 003°25'612.1
2017-Oct-25 07:31N 51°25' E 003°15'713.2
2017-Oct-25 07:00N 51°24' E 003°05'713.7
2017-Oct-25 06:30N 51°22' E 002°54'713.8
2017-Oct-25 06:01N 51°22' E 002°43'5 9.4
2017-Oct-25 05:31N 51°22' E 002°35'611.9
2017-Oct-25 05:00N 51°21' E 002°26'713.8
2017-Oct-25 04:30N 51°18' E 002°16'714.1
2017-Oct-25 04:00N 51°14' E 002°06'714.4
2017-Oct-25 03:30N 51°11' E 001°56'714.5
2017-Oct-25 03:01N 51°07' E 001°47'815.0
2017-Oct-25 02:30N 51°01' E 001°38'815.3
2017-Oct-25 02:00N 50°56' E 001°30'815.3
2017-Oct-25 01:30N 50°49' E 001°26'814.4
2017-Oct-25 00:59N 50°42' E 001°21'4814.2
2017-Oct-24 21:35N 50°21' E 000°12'114.3
2017-Oct-24 21:30N 50°21' E 000°11'714.0
2017-Oct-24 21:00N 50°19' E 000°00'713.6
2017-Oct-24 20:30N 50°17' W 000°10'713.3
2017-Oct-24 20:00N 50°16' W 000°20'612.9
2017-Oct-24 19:30N 50°14' W 000°30'612.4
2017-Oct-24 19:00N 50°13' W 000°39'611.9
2017-Oct-24 18:28N 50°11' W 000°49'611.4
2017-Oct-24 17:57N 50°09' W 000°58'2410.4
2017-Oct-24 15:41N 50°03' W 001°33'1210.7
2017-Oct-24 14:32N 49°59' W 001°51'411.5
2017-Oct-24 14:09N 49°58' W 001°58'312.0
2017-Oct-24 13:52N 49°57' W 002°03'512.5
2017-Oct-24 13:28N 49°56' W 002°11'713.2
2017-Oct-24 12:57N 49°54' W 002°21'1213.7
2017-Oct-24 12:06N 49°51' W 002°39'814.1
2017-Oct-24 11:31N 49°49' W 002°51'014.2
2017-Oct-24 11:30N 49°49' W 002°51'714.5
2017-Oct-24 11:00N 49°46' W 003°01'714.5
2017-Oct-24 10:29N 49°42' W 003°11'714.6
2017-Oct-24 09:58N 49°38' W 003°21'814.4
2017-Oct-24 09:26N 49°34' W 003°31'714.5
2017-Oct-24 08:59N 49°31' W 003°40'2114.7
2017-Oct-24 07:33N 49°20' W 004°08'115.2
2017-Oct-24 07:30N 49°20' W 004°09'914.9
2017-Oct-24 06:55N 49°15' W 004°20'614.9
2017-Oct-24 06:29N 49°12' W 004°29'1015.7
2017-Oct-24 05:52N 49°07' W 004°42'915.7
2017-Oct-24 05:18N 49°03' W 004°54'615.7
2017-Oct-24 04:57N 48°60' W 005°01'715.7
2017-Oct-24 04:29N 48°57' W 005°11'715.5
2017-Oct-24 04:01N 48°53' W 005°20'815.2
2017-Oct-24 03:30N 48°48' W 005°30'814.8
2017-Oct-24 02:58N 48°43' W 005°38'714.4
2017-Oct-24 02:30N 48°38' W 005°46'814.2
2017-Oct-24 01:58N 48°33' W 005°54'613.9
2017-Oct-24 01:30N 48°29' W 006°01'1213.6
2017-Oct-24 00:37N 48°20' W 006°14'813.2
2017-Oct-24 00:02N 48°15' W 006°23'113.4
2017-Oct-23 23:59N 48°15' W 006°24'613.2
2017-Oct-23 23:30N 48°11' W 006°31'713.3
2017-Oct-23 23:00N 48°06' W 006°39'714.0
2017-Oct-23 22:29N 48°02' W 006°47'712.7
2017-Oct-23 21:58N 47°58' W 006°55'913.3
2017-Oct-23 21:19N 47°52' W 007°05'613.8
2017-Oct-23 20:53N 47°48' W 007°12'813.3
2017-Oct-23 20:18N 47°44' W 007°21'413.4
2017-Oct-23 20:00N 47°41' W 007°25'  

Dump ship's entire track history